createdAt,value
2019-05-20T00:02:29.314Z,22.63
2019-05-20T00:05:48.366Z,22.53
2019-05-20T00:08:57.211Z,21.50
2019-05-20T00:12:05.815Z,21.67
2019-05-20T00:15:14.885Z,21.03
2019-05-20T00:18:23.629Z,19.47
2019-05-20T00:21:32.147Z,21.03
2019-05-20T00:24:41.002Z,21.13
2019-05-20T00:27:49.788Z,21.27
2019-05-20T00:30:58.440Z,20.07
2019-05-20T00:34:06.989Z,17.77
2019-05-20T00:37:15.767Z,17.40
2019-05-20T00:40:24.497Z,17.00
2019-05-20T00:43:33.220Z,16.57
2019-05-20T00:46:41.957Z,18.60
2019-05-20T00:49:50.485Z,15.73
2019-05-20T00:53:09.189Z,14.77
2019-05-20T00:56:17.922Z,14.80
2019-05-20T00:59:26.559Z,14.43
2019-05-20T01:02:35.237Z,13.80
2019-05-20T01:05:43.922Z,13.30
2019-05-20T01:08:52.748Z,13.33
2019-05-20T01:12:01.401Z,12.27
2019-05-20T01:15:10.454Z,14.00
2019-05-20T01:18:19.167Z,14.07
2019-05-20T01:21:27.784Z,14.13
2019-05-20T01:24:36.441Z,13.30
2019-05-20T01:27:45.135Z,12.40
2019-05-20T01:30:53.805Z,14.57
2019-05-20T01:34:12.504Z,13.47
2019-05-20T01:37:21.163Z,16.30
2019-05-20T01:40:29.828Z,14.60
2019-05-20T01:43:38.433Z,14.50
2019-05-20T01:46:47.172Z,15.13
2019-05-20T01:49:55.809Z,15.57
2019-05-20T01:53:03.981Z,15.20
2019-05-20T01:56:12.670Z,14.40
2019-05-20T01:59:22.913Z,15.30
2019-05-20T02:02:31.477Z,14.93
2019-05-20T02:05:40.116Z,15.17
2019-05-20T02:08:52.910Z,15.87
2019-05-20T02:12:14.326Z,16.20
2019-05-20T02:15:37.128Z,16.30
2019-05-20T02:18:46.135Z,14.33
2019-05-20T02:21:55.708Z,15.70
2019-05-20T02:25:04.346Z,16.70
2019-05-20T02:28:13.090Z,15.60
2019-05-20T02:31:31.802Z,14.73
2019-05-20T02:34:40.418Z,14.77
2019-05-20T02:37:49.113Z,14.17
2019-05-20T02:40:57.796Z,15.10
2019-05-20T02:44:06.323Z,16.40
2019-05-20T02:47:15.298Z,14.77
2019-05-20T02:50:24.091Z,14.43
2019-05-20T02:53:32.761Z,14.70
2019-05-20T02:56:41.594Z,14.63
2019-05-20T02:59:50.193Z,14.03
2019-05-20T03:02:58.851Z,13.50
2019-05-20T03:06:07.437Z,14.80
2019-05-20T03:09:26.305Z,14.13
2019-05-20T03:12:34.913Z,13.73
2019-05-20T03:15:45.278Z,14.20
2019-05-20T03:18:53.933Z,13.97
2019-05-20T03:22:02.564Z,13.23
2019-05-20T03:25:11.410Z,13.67
2019-05-20T03:28:20.151Z,13.27
2019-05-20T03:31:28.889Z,12.77
2019-05-20T03:34:53.696Z,13.03
2019-05-20T03:37:47.831Z,13.00
2019-05-20T03:40:56.429Z,12.13
2019-05-20T03:44:15.216Z,13.17
2019-05-20T03:47:24.069Z,14.77
2019-05-20T03:50:32.707Z,14.83
2019-05-20T03:53:44.039Z,12.60
2019-05-20T03:56:52.671Z,12.53
2019-05-20T03:59:59.822Z,12.20
2019-05-20T04:03:19.017Z,11.57
2019-05-20T04:06:37.861Z,11.17
2019-05-20T04:09:46.598Z,10.43
2019-05-20T04:12:55.293Z,9.47
2019-05-20T04:16:03.863Z,10.63
2019-05-20T04:19:12.463Z,9.23
2019-05-20T04:22:21.071Z,10.57
2019-05-20T04:25:29.600Z,9.50
2019-05-20T04:28:48.368Z,9.60
2019-05-20T04:31:57.100Z,10.30
2019-05-20T04:35:20.770Z,9.90
2019-05-20T04:38:16.460Z,11.00
2019-05-20T04:41:25.109Z,10.57
2019-05-20T04:44:34.401Z,10.63
2019-05-20T04:47:53.371Z,10.50
2019-05-20T04:51:01.931Z,11.37
2019-05-20T04:54:10.670Z,10.67
2019-05-20T04:57:19.416Z,11.60
2019-05-20T05:00:56.459Z,11.13
2019-05-20T05:04:05.134Z,11.37
2019-05-20T05:07:14.011Z,11.33
2019-05-20T05:10:22.749Z,11.27
2019-05-20T05:13:41.386Z,8.83
2019-05-20T05:16:50.192Z,10.17
2019-05-20T05:19:58.812Z,8.70
2019-05-20T05:23:07.407Z,10.20
2019-05-20T05:26:16.229Z,10.00
2019-05-20T05:29:24.759Z,9.67
2019-05-20T05:32:42.707Z,11.23
2019-05-20T05:36:01.468Z,10.47
2019-05-20T05:39:10.592Z,10.00
2019-05-20T05:42:30.148Z,9.67
2019-05-20T05:45:39.529Z,9.20
2019-05-20T05:48:58.408Z,9.40
2019-05-20T05:52:07.070Z,10.67
2019-05-20T05:55:15.691Z,10.00
2019-05-20T05:58:24.359Z,9.60
2019-05-20T06:01:32.958Z,8.07
2019-05-20T06:04:41.630Z,8.20
2019-05-20T06:07:52.038Z,7.97
2019-05-20T06:11:00.720Z,7.10
2019-05-20T06:14:10.129Z,7.47
2019-05-20T06:17:18.778Z,8.60
2019-05-20T06:20:27.389Z,9.60
2019-05-20T06:23:36.135Z,10.00
2019-05-20T06:26:44.774Z,8.20
2019-05-20T06:29:53.642Z,7.63
2019-05-20T06:33:04.639Z,7.47
2019-05-20T06:36:26.027Z,7.10
2019-05-20T06:39:23.773Z,6.60
2019-05-20T06:42:33.639Z,7.33
2019-05-20T06:45:42.311Z,6.53
2019-05-20T06:48:50.978Z,7.07
2019-05-20T06:52:00.940Z,6.60
2019-05-20T06:55:10.363Z,7.50
2019-05-20T06:58:23.204Z,7.53
2019-05-20T07:01:31.859Z,6.97
2019-05-20T07:04:41.649Z,7.93
2019-05-20T07:07:50.326Z,7.40
2019-05-20T07:10:58.972Z,7.20
2019-05-20T07:14:08.070Z,6.77
2019-05-20T07:17:17.853Z,6.50
2019-05-20T07:20:37.063Z,6.33
2019-05-20T07:23:52.318Z,6.40
2019-05-20T07:27:00.675Z,7.10
2019-05-20T07:30:15.512Z,6.70
2019-05-20T07:33:33.958Z,7.17
2019-05-20T07:36:42.531Z,7.80
2019-05-20T07:39:51.764Z,7.60
2019-05-20T07:43:10.743Z,7.50
2019-05-20T07:46:19.956Z,6.83
2019-05-20T07:49:39.965Z,7.70
2019-05-20T07:52:50.058Z,7.63
2019-05-20T07:56:16.870Z,7.73
2019-05-20T07:59:27.143Z,7.73
2019-05-20T08:02:36.568Z,7.40
2019-05-20T08:05:55.750Z,7.63
2019-05-20T08:09:15.392Z,7.03
2019-05-20T08:12:39.904Z,7.43
2019-05-20T08:15:49.407Z,7.00
2019-05-20T08:18:59.749Z,7.73
2019-05-20T08:22:19.535Z,7.20
2019-05-20T08:25:28.553Z,8.47
2019-05-20T08:28:47.654Z,6.93
2019-05-20T08:31:56.438Z,6.43
2019-05-20T08:35:07.290Z,6.80
2019-05-20T08:38:22.307Z,7.50
2019-05-20T08:41:41.278Z,7.97
2019-05-20T08:44:54.061Z,8.27
2019-05-20T08:48:04.602Z,7.23
2019-05-20T08:51:12.357Z,7.27
2019-05-20T08:54:23.932Z,6.97
2019-05-20T08:57:33.066Z,7.20
2019-05-20T09:00:44.829Z,6.60
2019-05-20T09:03:53.472Z,7.33
2019-05-20T09:07:03.866Z,7.03
2019-05-20T09:10:13.092Z,7.47
2019-05-20T09:13:21.730Z,6.93
2019-05-20T09:16:32.716Z,6.90
2019-05-20T09:19:41.475Z,7.50
2019-05-20T09:22:50.162Z,7.03
2019-05-20T09:25:58.935Z,6.77
2019-05-20T09:29:11.311Z,6.70
2019-05-20T09:32:18.284Z,6.20
2019-05-20T09:35:27.013Z,7.60
2019-05-20T09:38:37.027Z,6.80
2019-05-20T09:41:47.962Z,7.37
2019-05-20T09:44:57.407Z,8.07
2019-05-20T09:48:16.154Z,7.43
2019-05-20T09:51:35.065Z,7.17
2019-05-20T09:54:45.688Z,6.60
2019-05-20T09:57:54.078Z,7.87
2019-05-20T10:01:03.922Z,7.23
2019-05-20T10:04:12.558Z,7.17
2019-05-20T10:07:32.321Z,7.03
2019-05-20T10:10:40.958Z,7.33
2019-05-20T10:13:49.660Z,7.33
2019-05-20T10:16:58.388Z,6.63
2019-05-20T10:20:05.810Z,6.53
2019-05-20T10:23:15.941Z,8.03
2019-05-20T10:26:25.041Z,7.93
2019-05-20T10:29:33.686Z,8.13
2019-05-20T10:32:41.022Z,8.00
2019-05-20T10:35:49.715Z,8.27
2019-05-20T10:38:59.633Z,8.43
2019-05-20T10:42:18.639Z,8.10
2019-05-20T10:45:25.797Z,8.30
2019-05-20T10:48:37.140Z,8.63
2019-05-20T10:51:50.982Z,8.90
2019-05-20T10:55:01.030Z,9.20
2019-05-20T10:58:09.794Z,8.90
2019-05-20T11:01:18.746Z,8.67
2019-05-20T11:04:27.837Z,9.17
2019-05-20T11:07:36.846Z,9.20
2019-05-20T11:10:45.423Z,9.10
2019-05-20T11:13:54.073Z,8.53
2019-05-20T11:17:02.825Z,8.47
2019-05-20T11:20:10.989Z,8.53
2019-05-20T11:23:29.870Z,7.70
2019-05-20T11:26:38.593Z,7.70
2019-05-20T11:29:47.266Z,7.43
2019-05-20T11:32:56.034Z,8.13
2019-05-20T11:36:04.633Z,8.10
2019-05-20T11:39:29.254Z,8.07
2019-05-20T11:42:23.794Z,7.47
2019-05-20T11:45:32.421Z,7.90
2019-05-20T11:48:42.826Z,8.53
2019-05-20T11:51:51.451Z,8.27
2019-05-20T11:55:00.118Z,7.73
2019-05-20T11:58:15.603Z,8.30
2019-05-20T12:01:19.516Z,7.50
2019-05-20T12:04:28.366Z,8.00
2019-05-20T12:07:37.187Z,7.00
2019-05-20T12:10:45.950Z,7.53
2019-05-20T12:13:54.656Z,7.67
2019-05-20T12:17:04.845Z,7.70
2019-05-20T12:20:23.657Z,7.17
2019-05-20T12:23:32.313Z,7.33
2019-05-20T12:26:40.869Z,8.50
2019-05-20T12:29:49.485Z,7.63
2019-05-20T12:33:17.006Z,7.70
2019-05-20T12:36:08.386Z,7.60
2019-05-20T12:39:17.047Z,8.03
2019-05-20T12:42:25.987Z,7.07
2019-05-20T12:45:34.703Z,6.47
2019-05-20T12:48:43.612Z,8.07
2019-05-20T12:51:53.784Z,7.17
2019-05-20T12:55:12.978Z,8.03
2019-05-20T12:58:21.399Z,8.37
2019-05-20T13:01:30.232Z,9.07
2019-05-20T13:04:38.885Z,7.43
2019-05-20T13:07:47.567Z,7.27
2019-05-20T13:10:56.278Z,7.47
2019-05-20T13:14:04.809Z,7.73
2019-05-20T13:17:13.428Z,8.37
2019-05-20T13:20:22.644Z,8.40
2019-05-20T13:23:31.346Z,8.80
2019-05-20T13:26:40.060Z,8.87
2019-05-20T13:29:52.429Z,8.27
2019-05-20T13:33:01.172Z,8.90
2019-05-20T13:36:09.872Z,8.57
2019-05-20T13:39:18.824Z,8.93
2019-05-20T13:42:27.351Z,9.00
2019-05-20T13:45:36.170Z,7.87
2019-05-20T13:48:45.076Z,6.83
2019-05-20T13:51:53.819Z,9.33
2019-05-20T13:55:02.700Z,8.50
2019-05-20T13:58:11.769Z,8.33
2019-05-20T14:01:20.395Z,8.53
2019-05-20T14:04:29.099Z,9.13
2019-05-20T14:07:37.808Z,7.77
2019-05-20T14:11:01.252Z,8.83
2019-05-20T14:13:56.844Z,8.13
2019-05-20T14:17:05.373Z,8.07
2019-05-20T14:20:14.719Z,8.53
2019-05-20T14:23:23.299Z,8.97
2019-05-20T14:26:33.933Z,8.17
2019-05-20T14:29:42.623Z,8.40
2019-05-20T14:32:51.226Z,8.27
2019-05-20T14:35:59.772Z,9.00
2019-05-20T14:39:08.994Z,8.63
2019-05-20T14:42:17.704Z,8.83
2019-05-20T14:45:27.043Z,8.87
2019-05-20T14:48:35.994Z,9.23
2019-05-20T14:51:55.158Z,10.20
2019-05-20T14:55:03.792Z,10.10
2019-05-20T14:58:12.429Z,8.33
2019-05-20T15:01:22.327Z,8.33
2019-05-20T15:04:32.178Z,9.30
2019-05-20T15:07:51.195Z,8.43
2019-05-20T15:10:59.827Z,10.00
2019-05-20T15:14:08.554Z,8.67
2019-05-20T15:17:17.234Z,9.30
2019-05-20T15:20:25.915Z,10.37
2019-05-20T15:23:34.584Z,9.37
2019-05-20T15:26:43.385Z,10.23
2019-05-20T15:29:52.267Z,8.90
2019-05-20T15:33:00.825Z,9.90
2019-05-20T15:36:12.011Z,9.80
2019-05-20T15:39:20.698Z,9.80
2019-05-20T15:42:29.338Z,9.27
2019-05-20T15:45:37.999Z,9.23
2019-05-20T15:48:46.662Z,8.97
2019-05-20T15:51:55.494Z,9.27
2019-05-20T15:55:04.359Z,8.70
2019-05-20T15:58:13.110Z,9.37
2019-05-20T16:01:21.769Z,8.63
2019-05-20T16:04:30.461Z,9.50
2019-05-20T16:07:39.069Z,9.30
2019-05-20T16:10:47.733Z,8.80
2019-05-20T16:14:06.611Z,9.40
2019-05-20T16:17:15.245Z,8.93
2019-05-20T16:20:23.963Z,8.50
2019-05-20T16:23:32.583Z,8.47
2019-05-20T16:26:41.392Z,8.47
2019-05-20T16:30:05.535Z,7.80
2019-05-20T16:33:00.455Z,8.30
2019-05-20T16:36:09.505Z,8.47
2019-05-20T16:39:18.245Z,7.87
2019-05-20T16:42:26.634Z,8.07
2019-05-20T16:45:36.101Z,8.67
2019-05-20T16:48:44.768Z,7.43
2019-05-20T16:51:53.479Z,7.70
2019-05-20T16:55:02.208Z,9.17
2019-05-20T16:58:12.434Z,8.27
2019-05-20T17:01:19.562Z,7.50
2019-05-20T17:04:28.172Z,6.83
2019-05-20T17:07:36.804Z,7.73
2019-05-20T17:10:45.438Z,7.93
2019-05-20T17:14:04.312Z,6.63
2019-05-20T17:17:13.190Z,6.80
2019-05-20T17:20:21.766Z,7.80
2019-05-20T17:23:28.832Z,7.90
2019-05-20T17:26:37.466Z,6.27
2019-05-20T17:29:47.591Z,6.57
2019-05-20T17:32:56.102Z,6.40
2019-05-20T17:36:14.771Z,6.80
2019-05-20T17:39:23.482Z,6.87
2019-05-20T17:42:32.193Z,6.43
2019-05-20T17:45:41.106Z,6.60
2019-05-20T17:48:49.805Z,6.03
2019-05-20T17:51:58.438Z,6.80
2019-05-20T17:55:07.819Z,6.07
2019-05-20T17:58:16.333Z,6.40
2019-05-20T18:01:25.059Z,6.40
2019-05-20T18:04:33.664Z,6.13
2019-05-20T18:07:42.284Z,6.20
2019-05-20T18:10:50.926Z,6.33
2019-05-20T18:13:59.639Z,6.17
2019-05-20T18:17:08.592Z,6.27
2019-05-20T18:20:17.250Z,6.40
2019-05-20T18:23:25.872Z,6.27
2019-05-20T18:26:34.566Z,6.87
2019-05-20T18:29:53.283Z,7.00
2019-05-20T18:33:01.916Z,7.33
2019-05-20T18:36:10.756Z,7.23
2019-05-20T18:39:19.531Z,7.90
2019-05-20T18:42:28.136Z,7.37
2019-05-20T18:45:36.742Z,7.43
2019-05-20T18:48:45.377Z,7.57
2019-05-20T18:51:53.899Z,8.13
2019-05-20T18:55:12.705Z,7.20
2019-05-20T18:58:21.332Z,8.00
2019-05-20T19:01:30.013Z,7.60
2019-05-20T19:04:38.515Z,7.03
2019-05-20T19:07:47.296Z,6.87
2019-05-20T19:10:56.083Z,6.60
2019-05-20T19:14:08.166Z,7.60
2019-05-20T19:17:15.371Z,6.83
2019-05-20T19:20:24.088Z,7.13
2019-05-20T19:23:32.681Z,7.23
2019-05-20T19:26:41.306Z,8.10
2019-05-20T19:29:49.923Z,8.27
2019-05-20T19:33:08.764Z,7.77
2019-05-20T19:36:17.397Z,8.40
2019-05-20T19:39:26.010Z,8.27
2019-05-20T19:42:34.609Z,7.93
2019-05-20T19:45:43.130Z,7.00
2019-05-20T19:48:51.634Z,7.87
2019-05-20T19:52:11.678Z,7.70
2019-05-20T19:55:20.308Z,7.80
2019-05-20T19:58:28.964Z,7.47
2019-05-20T20:01:37.760Z,7.43
2019-05-20T20:04:46.399Z,6.60
2019-05-20T20:07:55.113Z,5.73
2019-05-20T20:11:03.925Z,5.90
2019-05-20T20:14:12.522Z,5.37
2019-05-20T20:17:31.504Z,4.73
2019-05-20T20:20:40.123Z,4.53
2019-05-20T20:23:48.759Z,4.30
2019-05-20T20:26:57.473Z,4.47
2019-05-20T20:30:07.613Z,4.10
2019-05-20T20:33:16.165Z,4.30
2019-05-20T20:36:24.869Z,4.10
2019-05-20T20:39:34.400Z,4.70
2019-05-20T20:42:42.813Z,4.00
2019-05-20T20:45:51.468Z,4.37
2019-05-20T20:49:00.157Z,4.40
2019-05-20T20:52:09.029Z,3.83
2019-05-20T20:55:17.659Z,4.03
2019-05-20T20:58:26.349Z,4.10
2019-05-20T21:01:45.190Z,3.60
2019-05-20T21:04:52.772Z,3.83
2019-05-20T21:08:12.714Z,3.97
2019-05-20T21:11:21.421Z,4.13
2019-05-20T21:14:30.077Z,3.43
2019-05-20T21:17:38.776Z,3.90
2019-05-20T21:20:47.296Z,3.43
2019-05-20T21:24:06.116Z,4.10
2019-05-20T21:27:14.835Z,3.50
2019-05-20T21:30:23.440Z,3.20
2019-05-20T21:33:32.052Z,3.63
2019-05-20T21:36:47.831Z,4.17
2019-05-20T21:39:51.037Z,3.60
2019-05-20T21:42:59.659Z,4.00
2019-05-20T21:46:08.313Z,3.70
2019-05-20T21:49:27.015Z,4.10
2019-05-20T21:52:35.644Z,3.90
2019-05-20T21:55:44.135Z,3.80
2019-05-20T21:58:52.803Z,3.67
2019-05-20T22:02:01.411Z,3.57
2019-05-20T22:05:10.426Z,4.27
2019-05-20T22:08:19.087Z,4.00
2019-05-20T22:11:27.686Z,3.77
2019-05-20T22:14:46.342Z,3.90
2019-05-20T22:17:55.084Z,4.00
2019-05-20T22:21:06.322Z,3.90
2019-05-20T22:24:14.952Z,3.57
2019-05-20T22:27:23.738Z,3.50
2019-05-20T22:30:32.422Z,3.90
2019-05-20T22:33:51.383Z,3.57
2019-05-20T22:36:59.904Z,3.77
2019-05-20T22:40:09.659Z,3.70
2019-05-20T22:43:18.161Z,3.50
2019-05-20T22:46:36.965Z,3.30
2019-05-20T22:49:45.632Z,3.80
2019-05-20T22:52:54.312Z,3.53
2019-05-20T22:56:02.981Z,3.67
2019-05-20T22:59:11.692Z,3.60
2019-05-20T23:02:20.285Z,3.37
2019-05-20T23:05:28.906Z,3.90
2019-05-20T23:08:37.612Z,3.73
2019-05-20T23:11:56.221Z,3.90
2019-05-20T23:15:05.092Z,4.07
2019-05-20T23:18:13.865Z,3.90
2019-05-20T23:21:21.165Z,3.97
2019-05-20T23:24:29.808Z,3.40
2019-05-20T23:27:50.359Z,4.23
2019-05-20T23:30:59.141Z,3.50
2019-05-20T23:34:12.747Z,3.43
2019-05-20T23:37:18.209Z,4.10
2019-05-20T23:40:26.823Z,3.70
2019-05-20T23:43:35.590Z,3.73
2019-05-20T23:46:45.013Z,3.40
2019-05-20T23:49:53.616Z,4.43
2019-05-20T23:53:02.298Z,3.63
2019-05-20T23:56:11.107Z,3.60
2019-05-20T23:59:19.647Z,3.83
